sensor_id;sensor_type;location;lat;lon;timestamp;P1;durP1;ratioP1;P2;durP2;ratioP2
55913;SDS011;58179;48.776;9.124;2024-01-25T00:00:29;32.53;;;5.60;;
55913;SDS011;58179;48.776;9.124;2024-01-25T00:02:57;17.38;;;3.28;;
55913;SDS011;58179;48.776;9.124;2024-01-25T00:05:23;26.13;;;5.40;;
55913;SDS011;58179;48.776;9.124;2024-01-25T00:07:49;20.27;;;4.28;;
55913;SDS011;58179;48.776;9.124;2024-01-25T00:10:16;22.23;;;4.82;;
55913;SDS011;58179;48.776;9.124;2024-01-25T00:12:44;38.58;;;5.63;;
55913;SDS011;58179;48.776;9.124;2024-01-25T00:15:10;35.50;;;5.88;;
55913;SDS011;58179;48.776;9.124;2024-01-25T00:17:37;43.42;;;5.97;;
55913;SDS011;58179;48.776;9.124;2024-01-25T00:20:05;31.27;;;5.75;;
55913;SDS011;58179;48.776;9.124;2024-01-25T00:22:34;32.60;;;6.30;;
55913;SDS011;58179;48.776;9.124;2024-01-25T00:25:02;41.25;;;6.53;;
55913;SDS011;58179;48.776;9.124;2024-01-25T00:27:28;22.88;;;4.28;;
55913;SDS011;58179;48.776;9.124;2024-01-25T00:29:54;23.63;;;5.25;;
55913;SDS011;58179;48.776;9.124;2024-01-25T00:32:20;38.00;;;6.20;;
55913;SDS011;58179;48.776;9.124;2024-01-25T00:34:47;35.03;;;5.45;;
55913;SDS011;58179;48.776;9.124;2024-01-25T00:37:15;16.42;;;3.83;;
55913;SDS011;58179;48.776;9.124;2024-01-25T00:39:42;48.70;;;6.18;;
55913;SDS011;58179;48.776;9.124;2024-01-25T00:42:08;24.85;;;4.60;;
55913;SDS011;58179;48.776;9.124;2024-01-25T00:44:39;17.45;;;3.38;;
55913;SDS011;58179;48.776;9.124;2024-01-25T00:47:06;32.78;;;4.65;;
55913;SDS011;58179;48.776;9.124;2024-01-25T00:49:33;22.85;;;4.18;;
55913;SDS011;58179;48.776;9.124;2024-01-25T00:52:00;12.48;;;3.30;;
55913;SDS011;58179;48.776;9.124;2024-01-25T00:54:30;26.85;;;4.53;;
55913;SDS011;58179;48.776;9.124;2024-01-25T00:56:57;32.97;;;5.90;;
55913;SDS011;58179;48.776;9.124;2024-01-25T00:59:24;15.33;;;3.67;;
55913;SDS011;58179;48.776;9.124;2024-01-25T01:01:50;20.85;;;3.58;;
55913;SDS011;58179;48.776;9.124;2024-01-25T01:04:20;44.78;;;6.40;;
55913;SDS011;58179;48.776;9.124;2024-01-25T01:06:47;23.98;;;4.30;;
55913;SDS011;58179;48.776;9.124;2024-01-25T01:09:13;37.43;;;5.40;;
55913;SDS011;58179;48.776;9.124;2024-01-25T01:11:41;36.65;;;5.80;;
55913;SDS011;58179;48.776;9.124;2024-01-25T01:14:07;16.30;;;3.60;;
55913;SDS011;58179;48.776;9.124;2024-01-25T01:16:33;49.15;;;6.35;;
55913;SDS011;58179;48.776;9.124;2024-01-25T01:19:01;24.63;;;4.13;;
55913;SDS011;58179;48.776;9.124;2024-01-25T01:21:30;23.60;;;4.28;;
55913;SDS011;58179;48.776;9.124;2024-01-25T01:23:57;22.25;;;4.60;;
55913;SDS011;58179;48.776;9.124;2024-01-25T01:26:23;30.98;;;5.63;;
55913;SDS011;58179;48.776;9.124;2024-01-25T01:28:50;25.40;;;4.63;;
55913;SDS011;58179;48.776;9.124;2024-01-25T01:31:16;25.43;;;5.17;;
55913;SDS011;58179;48.776;9.124;2024-01-25T01:33:42;33.28;;;5.45;;
55913;SDS011;58179;48.776;9.124;2024-01-25T01:36:09;30.80;;;5.15;;
55913;SDS011;58179;48.776;9.124;2024-01-25T01:38:35;17.55;;;3.75;;
55913;SDS011;58179;48.776;9.124;2024-01-25T01:41:01;27.25;;;5.05;;
55913;SDS011;58179;48.776;9.124;2024-01-25T01:43:27;17.30;;;3.38;;
55913;SDS011;58179;48.776;9.124;2024-01-25T01:45:55;33.83;;;4.88;;
55913;SDS011;58179;48.776;9.124;2024-01-25T01:48:27;25.90;;;4.55;;
55913;SDS011;58179;48.776;9.124;2024-01-25T01:50:53;35.90;;;5.78;;
55913;SDS011;58179;48.776;9.124;2024-01-25T01:53:19;26.20;;;4.10;;
55913;SDS011;58179;48.776;9.124;2024-01-25T01:55:46;42.72;;;5.85;;
55913;SDS011;58179;48.776;9.124;2024-01-25T01:58:12;33.20;;;4.75;;
55913;SDS011;58179;48.776;9.124;2024-01-25T02:00:39;33.67;;;5.18;;
55913;SDS011;58179;48.776;9.124;2024-01-25T02:03:08;21.05;;;4.13;;
55913;SDS011;58179;48.776;9.124;2024-01-25T02:05:34;30.25;;;4.70;;
55913;SDS011;58179;48.776;9.124;2024-01-25T02:08:01;26.88;;;5.00;;
55913;SDS011;58179;48.776;9.124;2024-01-25T02:10:28;19.95;;;3.90;;
55913;SDS011;58179;48.776;9.124;2024-01-25T02:12:54;16.67;;;4.13;;
55913;SDS011;58179;48.776;9.124;2024-01-25T02:15:20;34.88;;;5.43;;
55913;SDS011;58179;48.776;9.124;2024-01-25T02:17:46;25.00;;;4.50;;
55913;SDS011;58179;48.776;9.124;2024-01-25T02:20:14;20.77;;;4.23;;
55913;SDS011;58179;48.776;9.124;2024-01-25T02:22:44;38.30;;;5.43;;
55913;SDS011;58179;48.776;9.124;2024-01-25T02:25:10;21.75;;;4.00;;
55913;SDS011;58179;48.776;9.124;2024-01-25T02:27:36;24.60;;;5.15;;
55913;SDS011;58179;48.776;9.124;2024-01-25T02:30:04;24.60;;;5.60;;
55913;SDS011;58179;48.776;9.124;2024-01-25T02:32:31;27.60;;;4.97;;
55913;SDS011;58179;48.776;9.124;2024-01-25T02:34:57;29.17;;;4.53;;
55913;SDS011;58179;48.776;9.124;2024-01-25T02:37:24;21.58;;;4.25;;
55913;SDS011;58179;48.776;9.124;2024-01-25T02:39:51;25.13;;;4.57;;
55913;SDS011;58179;48.776;9.124;2024-01-25T02:42:18;14.27;;;3.20;;
55913;SDS011;58179;48.776;9.124;2024-01-25T02:44:44;17.55;;;3.58;;
55913;SDS011;58179;48.776;9.124;2024-01-25T02:47:10;17.73;;;3.65;;
55913;SDS011;58179;48.776;9.124;2024-01-25T02:49:37;17.02;;;3.33;;
55913;SDS011;58179;48.776;9.124;2024-01-25T02:52:03;19.23;;;3.97;;
55913;SDS011;58179;48.776;9.124;2024-01-25T02:54:29;28.00;;;6.07;;
55913;SDS011;58179;48.776;9.124;2024-01-25T02:57:00;14.73;;;4.00;;
55913;SDS011;58179;48.776;9.124;2024-01-25T02:59:26;22.83;;;3.53;;
55913;SDS011;58179;48.776;9.124;2024-01-25T03:01:53;21.52;;;3.78;;
55913;SDS011;58179;48.776;9.124;2024-01-25T03:04:20;19.40;;;3.70;;
55913;SDS011;58179;48.776;9.124;2024-01-25T03:06:46;14.05;;;3.20;;
55913;SDS011;58179;48.776;9.124;2024-01-25T03:09:12;16.48;;;3.38;;
55913;SDS011;58179;48.776;9.124;2024-01-25T03:11:38;27.63;;;4.93;;
55913;SDS011;58179;48.776;9.124;2024-01-25T03:14:05;29.80;;;5.03;;
55913;SDS011;58179;48.776;9.124;2024-01-25T03:16:32;20.60;;;4.00;;
55913;SDS011;58179;48.776;9.124;2024-01-25T03:18:58;21.37;;;3.73;;
55913;SDS011;58179;48.776;9.124;2024-01-25T03:21:24;12.93;;;3.10;;
55913;SDS011;58179;48.776;9.124;2024-01-25T03:23:51;19.23;;;3.67;;
55913;SDS011;58179;48.776;9.124;2024-01-25T03:26:17;30.80;;;4.72;;
55913;SDS011;58179;48.776;9.124;2024-01-25T03:28:43;18.15;;;3.55;;
55913;SDS011;58179;48.776;9.124;2024-01-25T03:31:10;11.68;;;3.22;;
55913;SDS011;58179;48.776;9.124;2024-01-25T03:33:37;15.63;;;3.03;;
55913;SDS011;58179;48.776;9.124;2024-01-25T03:36:03;10.13;;;2.58;;
55913;SDS011;58179;48.776;9.124;2024-01-25T03:38:30;18.80;;;3.97;;
55913;SDS011;58179;48.776;9.124;2024-01-25T03:40:56;10.45;;;2.80;;
55913;SDS011;58179;48.776;9.124;2024-01-25T03:43:23;7.28;;;2.20;;
55913;SDS011;58179;48.776;9.124;2024-01-25T03:45:50;9.38;;;2.58;;
55913;SDS011;58179;48.776;9.124;2024-01-25T03:48:17;30.17;;;4.93;;
55913;SDS011;58179;48.776;9.124;2024-01-25T03:50:44;14.82;;;3.20;;
55913;SDS011;58179;48.776;9.124;2024-01-25T03:53:10;13.93;;;3.55;;
55913;SDS011;58179;48.776;9.124;2024-01-25T03:55:37;32.47;;;4.90;;
55913;SDS011;58179;48.776;9.124;2024-01-25T03:58:04;15.83;;;3.37;;
55913;SDS011;58179;48.776;9.124;2024-01-25T04:00:31;9.52;;;2.92;;
55913;SDS011;58179;48.776;9.124;2024-01-25T04:02:58;14.88;;;3.47;;
55913;SDS011;58179;48.776;9.124;2024-01-25T04:05:26;10.63;;;2.58;;
55913;SDS011;58179;48.776;9.124;2024-01-25T04:07:52;12.65;;;2.67;;
55913;SDS011;58179;48.776;9.124;2024-01-25T04:10:18;16.63;;;4.05;;
55913;SDS011;58179;48.776;9.124;2024-01-25T04:12:44;32.30;;;4.93;;
55913;SDS011;58179;48.776;9.124;2024-01-25T04:15:11;15.90;;;3.92;;
55913;SDS011;58179;48.776;9.124;2024-01-25T04:17:37;23.48;;;4.07;;
55913;SDS011;58179;48.776;9.124;2024-01-25T04:20:03;26.80;;;4.43;;
55913;SDS011;58179;48.776;9.124;2024-01-25T04:22:31;17.08;;;3.90;;
55913;SDS011;58179;48.776;9.124;2024-01-25T04:24:58;17.67;;;3.28;;
55913;SDS011;58179;48.776;9.124;2024-01-25T04:27:24;27.13;;;4.43;;
55913;SDS011;58179;48.776;9.124;2024-01-25T04:29:50;34.58;;;4.68;;
55913;SDS011;58179;48.776;9.124;2024-01-25T04:32:16;30.48;;;5.70;;
55913;SDS011;58179;48.776;9.124;2024-01-25T04:34:43;20.70;;;4.00;;
55913;SDS011;58179;48.776;9.124;2024-01-25T04:37:11;11.63;;;3.38;;
55913;SDS011;58179;48.776;9.124;2024-01-25T04:39:39;37.72;;;5.22;;
55913;SDS011;58179;48.776;9.124;2024-01-25T04:42:05;15.18;;;3.50;;
55913;SDS011;58179;48.776;9.124;2024-01-25T04:44:31;44.80;;;6.05;;
55913;SDS011;58179;48.776;9.124;2024-01-25T04:46:57;29.10;;;4.80;;
55913;SDS011;58179;48.776;9.124;2024-01-25T04:49:24;15.63;;;3.58;;
55913;SDS011;58179;48.776;9.124;2024-01-25T04:51:51;37.42;;;5.03;;
55913;SDS011;58179;48.776;9.124;2024-01-25T04:54:17;29.02;;;5.65;;
55913;SDS011;58179;48.776;9.124;2024-01-25T04:56:44;16.17;;;3.78;;
55913;SDS011;58179;48.776;9.124;2024-01-25T04:59:10;20.73;;;4.38;;
55913;SDS011;58179;48.776;9.124;2024-01-25T05:01:36;21.90;;;4.55;;
55913;SDS011;58179;48.776;9.124;2024-01-25T05:04:03;21.95;;;4.55;;
55913;SDS011;58179;48.776;9.124;2024-01-25T05:06:30;20.92;;;4.22;;
55913;SDS011;58179;48.776;9.124;2024-01-25T05:08:56;30.58;;;4.90;;
55913;SDS011;58179;48.776;9.124;2024-01-25T05:11:22;36.47;;;5.65;;
55913;SDS011;58179;48.776;9.124;2024-01-25T05:13:50;40.40;;;5.28;;
55913;SDS011;58179;48.776;9.124;2024-01-25T05:16:16;26.23;;;4.68;;
55913;SDS011;58179;48.776;9.124;2024-01-25T05:18:42;33.30;;;5.45;;
55913;SDS011;58179;48.776;9.124;2024-01-25T05:21:08;23.92;;;4.78;;
55913;SDS011;58179;48.776;9.124;2024-01-25T05:23:34;26.75;;;4.72;;
55913;SDS011;58179;48.776;9.124;2024-01-25T05:26:01;47.67;;;6.05;;
55913;SDS011;58179;48.776;9.124;2024-01-25T05:28:27;32.30;;;5.40;;
55913;SDS011;58179;48.776;9.124;2024-01-25T05:30:54;27.07;;;5.00;;
55913;SDS011;58179;48.776;9.124;2024-01-25T05:33:20;28.73;;;5.22;;
55913;SDS011;58179;48.776;9.124;2024-01-25T05:35:47;30.05;;;5.32;;
55913;SDS011;58179;48.776;9.124;2024-01-25T05:38:13;25.02;;;4.53;;
55913;SDS011;58179;48.776;9.124;2024-01-25T05:40:39;30.65;;;5.63;;
55913;SDS011;58179;48.776;9.124;2024-01-25T05:43:05;22.10;;;4.25;;
55913;SDS011;58179;48.776;9.124;2024-01-25T05:45:32;35.47;;;4.80;;
55913;SDS011;58179;48.776;9.124;2024-01-25T05:48:00;30.02;;;5.15;;
55913;SDS011;58179;48.776;9.124;2024-01-25T05:50:26;38.53;;;6.47;;
55913;SDS011;58179;48.776;9.124;2024-01-25T05:52:52;26.75;;;5.07;;
55913;SDS011;58179;48.776;9.124;2024-01-25T05:55:18;22.88;;;4.90;;
55913;SDS011;58179;48.776;9.124;2024-01-25T05:57:45;24.88;;;4.95;;
55913;SDS011;58179;48.776;9.124;2024-01-25T06:00:11;17.23;;;3.88;;
55913;SDS011;58179;48.776;9.124;2024-01-25T06:02:40;31.83;;;4.85;;
55913;SDS011;58179;48.776;9.124;2024-01-25T06:05:07;31.02;;;5.72;;
55913;SDS011;58179;48.776;9.124;2024-01-25T06:07:34;45.28;;;7.03;;
55913;SDS011;58179;48.776;9.124;2024-01-25T06:10:00;34.75;;;5.63;;
55913;SDS011;58179;48.776;9.124;2024-01-25T06:12:26;46.47;;;6.88;;
55913;SDS011;58179;48.776;9.124;2024-01-25T06:14:52;30.48;;;5.35;;
55913;SDS011;58179;48.776;9.124;2024-01-25T06:17:18;41.72;;;6.55;;
55913;SDS011;58179;48.776;9.124;2024-01-25T06:19:44;24.38;;;5.38;;
55913;SDS011;58179;48.776;9.124;2024-01-25T06:22:12;44.53;;;7.25;;
55913;SDS011;58179;48.776;9.124;2024-01-25T06:24:38;32.50;;;6.18;;
55913;SDS011;58179;48.776;9.124;2024-01-25T06:27:04;18.73;;;4.35;;
55913;SDS011;58179;48.776;9.124;2024-01-25T06:29:30;43.58;;;6.70;;
55913;SDS011;58179;48.776;9.124;2024-01-25T06:31:57;37.95;;;5.88;;
55913;SDS011;58179;48.776;9.124;2024-01-25T06:34:23;17.05;;;4.45;;
55913;SDS011;58179;48.776;9.124;2024-01-25T06:36:49;17.20;;;3.95;;
55913;SDS011;58179;48.776;9.124;2024-01-25T06:39:16;37.53;;;6.05;;
55913;SDS011;58179;48.776;9.124;2024-01-25T06:41:42;21.75;;;4.38;;
55913;SDS011;58179;48.776;9.124;2024-01-25T06:44:09;39.97;;;6.13;;
55913;SDS011;58179;48.776;9.124;2024-01-25T06:46:35;49.78;;;6.70;;
55913;SDS011;58179;48.776;9.124;2024-01-25T06:49:01;49.33;;;6.88;;
55913;SDS011;58179;48.776;9.124;2024-01-25T06:51:28;41.75;;;5.90;;
55913;SDS011;58179;48.776;9.124;2024-01-25T06:53:54;34.67;;;6.00;;
55913;SDS011;58179;48.776;9.124;2024-01-25T06:56:21;38.47;;;6.10;;
55913;SDS011;58179;48.776;9.124;2024-01-25T06:58:47;40.13;;;6.68;;
55913;SDS011;58179;48.776;9.124;2024-01-25T07:01:19;37.47;;;6.45;;
55913;SDS011;58179;48.776;9.124;2024-01-25T07:03:46;62.80;;;7.95;;
55913;SDS011;58179;48.776;9.124;2024-01-25T07:06:12;22.55;;;4.50;;
55913;SDS011;58179;48.776;9.124;2024-01-25T07:08:38;16.45;;;3.85;;
55913;SDS011;58179;48.776;9.124;2024-01-25T07:11:04;37.22;;;5.88;;
55913;SDS011;58179;48.776;9.124;2024-01-25T07:13:31;16.38;;;3.95;;
55913;SDS011;58179;48.776;9.124;2024-01-25T07:15:58;41.05;;;6.10;;
55913;SDS011;58179;48.776;9.124;2024-01-25T07:18:24;36.08;;;6.80;;
55913;SDS011;58179;48.776;9.124;2024-01-25T07:20:50;50.05;;;6.90;;
55913;SDS011;58179;48.776;9.124;2024-01-25T07:23:17;30.25;;;5.70;;
55913;SDS011;58179;48.776;9.124;2024-01-25T07:25:43;33.63;;;6.00;;
55913;SDS011;58179;48.776;9.124;2024-01-25T07:28:09;59.05;;;7.53;;
55913;SDS011;58179;48.776;9.124;2024-01-25T07:30:37;32.20;;;5.40;;
55913;SDS011;58179;48.776;9.124;2024-01-25T07:33:03;43.67;;;6.55;;
55913;SDS011;58179;48.776;9.124;2024-01-25T07:35:29;51.35;;;7.20;;
55913;SDS011;58179;48.776;9.124;2024-01-25T07:37:56;39.92;;;7.05;;
55913;SDS011;58179;48.776;9.124;2024-01-25T07:40:23;34.40;;;6.68;;
55913;SDS011;58179;48.776;9.124;2024-01-25T07:42:49;51.40;;;7.22;;
55913;SDS011;58179;48.776;9.124;2024-01-25T07:45:15;44.42;;;7.45;;
55913;SDS011;58179;48.776;9.124;2024-01-25T07:47:42;22.65;;;4.55;;
55913;SDS011;58179;48.776;9.124;2024-01-25T07:50:09;25.40;;;4.53;;
55913;SDS011;58179;48.776;9.124;2024-01-25T07:52:35;24.20;;;5.37;;
55913;SDS011;58179;48.776;9.124;2024-01-25T07:55:02;42.03;;;6.78;;
55913;SDS011;58179;48.776;9.124;2024-01-25T07:57:28;44.92;;;6.75;;
55913;SDS011;58179;48.776;9.124;2024-01-25T07:59:54;41.60;;;7.23;;
55913;SDS011;58179;48.776;9.124;2024-01-25T08:02:20;28.42;;;5.60;;
55913;SDS011;58179;48.776;9.124;2024-01-25T08:04:48;68.27;;;8.40;;
55913;SDS011;58179;48.776;9.124;2024-01-25T08:07:14;42.60;;;7.18;;
55913;SDS011;58179;48.776;9.124;2024-01-25T08:09:40;33.63;;;5.80;;
55913;SDS011;58179;48.776;9.124;2024-01-25T08:12:07;35.80;;;6.68;;
55913;SDS011;58179;48.776;9.124;2024-01-25T08:14:34;36.85;;;6.13;;
55913;SDS011;58179;48.776;9.124;2024-01-25T08:17:00;41.33;;;6.70;;
55913;SDS011;58179;48.776;9.124;2024-01-25T08:19:26;42.90;;;6.20;;
55913;SDS011;58179;48.776;9.124;2024-01-25T08:21:53;24.85;;;4.45;;
55913;SDS011;58179;48.776;9.124;2024-01-25T08:24:20;34.05;;;6.28;;
55913;SDS011;58179;48.776;9.124;2024-01-25T08:26:46;36.35;;;6.05;;
55913;SDS011;58179;48.776;9.124;2024-01-25T08:29:12;16.98;;;4.00;;
55913;SDS011;58179;48.776;9.124;2024-01-25T08:31:38;17.73;;;4.05;;
55913;SDS011;58179;48.776;9.124;2024-01-25T08:34:04;29.35;;;5.50;;
55913;SDS011;58179;48.776;9.124;2024-01-25T08:36:30;28.52;;;6.07;;
55913;SDS011;58179;48.776;9.124;2024-01-25T08:38:58;23.02;;;4.85;;
55913;SDS011;58179;48.776;9.124;2024-01-25T08:41:24;21.20;;;4.43;;
55913;SDS011;58179;48.776;9.124;2024-01-25T08:43:50;32.45;;;4.95;;
55913;SDS011;58179;48.776;9.124;2024-01-25T08:46:17;48.67;;;6.72;;
55913;SDS011;58179;48.776;9.124;2024-01-25T08:48:43;28.67;;;4.18;;
55913;SDS011;58179;48.776;9.124;2024-01-25T08:51:09;43.53;;;6.20;;
55913;SDS011;58179;48.776;9.124;2024-01-25T08:53:35;22.75;;;4.78;;
55913;SDS011;58179;48.776;9.124;2024-01-25T08:56:03;29.37;;;4.70;;
55913;SDS011;58179;48.776;9.124;2024-01-25T08:58:30;22.40;;;4.15;;
55913;SDS011;58179;48.776;9.124;2024-01-25T09:00:56;39.80;;;6.43;;
55913;SDS011;58179;48.776;9.124;2024-01-25T09:03:22;19.43;;;3.63;;
55913;SDS011;58179;48.776;9.124;2024-01-25T09:05:48;9.90;;;3.10;;
55913;SDS011;58179;48.776;9.124;2024-01-25T09:08:15;17.92;;;3.50;;
55913;SDS011;58179;48.776;9.124;2024-01-25T09:10:41;15.90;;;4.10;;
55913;SDS011;58179;48.776;9.124;2024-01-25T09:13:09;15.73;;;3.22;;
55913;SDS011;58179;48.776;9.124;2024-01-25T09:15:35;37.05;;;5.05;;
55913;SDS011;58179;48.776;9.124;2024-01-25T09:18:02;23.45;;;4.13;;
55913;SDS011;58179;48.776;9.124;2024-01-25T09:20:28;33.15;;;5.03;;
55913;SDS011;58179;48.776;9.124;2024-01-25T09:22:55;32.85;;;6.03;;
55913;SDS011;58179;48.776;9.124;2024-01-25T09:25:21;12.40;;;3.33;;
55913;SDS011;58179;48.776;9.124;2024-01-25T09:27:48;12.52;;;2.83;;
55913;SDS011;58179;48.776;9.124;2024-01-25T09:30:16;11.17;;;2.93;;
55913;SDS011;58179;48.776;9.124;2024-01-25T09:32:42;17.65;;;3.53;;
55913;SDS011;58179;48.776;9.124;2024-01-25T09:35:08;30.13;;;5.25;;
55913;SDS011;58179;48.776;9.124;2024-01-25T09:37:35;20.85;;;4.45;;
55913;SDS011;58179;48.776;9.124;2024-01-25T09:40:01;12.93;;;3.60;;
55913;SDS011;58179;48.776;9.124;2024-01-25T09:42:29;7.28;;;2.50;;
55913;SDS011;58179;48.776;9.124;2024-01-25T09:44:55;10.45;;;2.95;;
55913;SDS011;58179;48.776;9.124;2024-01-25T09:47:22;6.70;;;2.10;;
55913;SDS011;58179;48.776;9.124;2024-01-25T09:49:49;5.13;;;1.90;;
55913;SDS011;58179;48.776;9.124;2024-01-25T09:52:15;8.80;;;2.45;;
55913;SDS011;58179;48.776;9.124;2024-01-25T09:54:44;7.35;;;1.90;;
55913;SDS011;58179;48.776;9.124;2024-01-25T09:57:13;5.72;;;1.90;;
55913;SDS011;58179;48.776;9.124;2024-01-25T09:59:46;3.67;;;1.48;;
55913;SDS011;58179;48.776;9.124;2024-01-25T10:02:12;6.50;;;1.98;;
55913;SDS011;58179;48.776;9.124;2024-01-25T10:04:40;6.88;;;2.00;;
55913;SDS011;58179;48.776;9.124;2024-01-25T10:07:06;8.93;;;2.38;;
55913;SDS011;58179;48.776;9.124;2024-01-25T10:09:37;13.48;;;3.55;;
55913;SDS011;58179;48.776;9.124;2024-01-25T10:12:05;4.30;;;1.70;;
55913;SDS011;58179;48.776;9.124;2024-01-25T10:14:31;9.57;;;2.97;;
55913;SDS011;58179;48.776;9.124;2024-01-25T10:16:57;8.57;;;2.80;;
55913;SDS011;58179;48.776;9.124;2024-01-25T10:19:25;6.78;;;2.42;;
55913;SDS011;58179;48.776;9.124;2024-01-25T10:21:52;11.07;;;2.97;;
55913;SDS011;58179;48.776;9.124;2024-01-25T10:24:19;9.35;;;2.63;;
55913;SDS011;58179;48.776;9.124;2024-01-25T10:26:45;9.15;;;2.60;;
55913;SDS011;58179;48.776;9.124;2024-01-25T10:29:14;8.68;;;2.75;;
55913;SDS011;58179;48.776;9.124;2024-01-25T10:31:40;9.52;;;2.90;;
55913;SDS011;58179;48.776;9.124;2024-01-25T10:34:08;8.30;;;2.90;;
55913;SDS011;58179;48.776;9.124;2024-01-25T10:36:38;6.85;;;2.35;;
55913;SDS011;58179;48.776;9.124;2024-01-25T10:39:07;7.05;;;2.20;;
55913;SDS011;58179;48.776;9.124;2024-01-25T10:41:34;6.65;;;2.03;;
55913;SDS011;58179;48.776;9.124;2024-01-25T10:44:01;5.00;;;1.77;;
55913;SDS011;58179;48.776;9.124;2024-01-25T10:46:28;4.93;;;1.60;;
55913;SDS011;58179;48.776;9.124;2024-01-25T10:48:55;4.65;;;1.60;;
55913;SDS011;58179;48.776;9.124;2024-01-25T10:51:26;4.80;;;1.70;;
55913;SDS011;58179;48.776;9.124;2024-01-25T10:53:55;3.83;;;1.40;;
55913;SDS011;58179;48.776;9.124;2024-01-25T10:56:24;7.07;;;2.30;;
55913;SDS011;58179;48.776;9.124;2024-01-25T10:58:51;8.82;;;2.72;;
55913;SDS011;58179;48.776;9.124;2024-01-25T11:01:18;6.45;;;1.80;;
55913;SDS011;58179;48.776;9.124;2024-01-25T11:03:45;16.70;;;3.33;;
55913;SDS011;58179;48.776;9.124;2024-01-25T11:06:12;12.82;;;3.05;;
55913;SDS011;58179;48.776;9.124;2024-01-25T11:08:38;14.93;;;3.30;;
55913;SDS011;58179;48.776;9.124;2024-01-25T11:11:05;15.23;;;3.30;;
55913;SDS011;58179;48.776;9.124;2024-01-25T11:13:38;12.77;;;3.10;;
55913;SDS011;58179;48.776;9.124;2024-01-25T11:16:12;7.15;;;2.40;;
55913;SDS011;58179;48.776;9.124;2024-01-25T11:18:47;6.85;;;1.83;;
55913;SDS011;58179;48.776;9.124;2024-01-25T11:21:21;14.63;;;3.25;;
55913;SDS011;58179;48.776;9.124;2024-01-25T11:23:58;18.63;;;3.78;;
55913;SDS011;58179;48.776;9.124;2024-01-25T11:26:27;10.60;;;2.65;;
55913;SDS011;58179;48.776;9.124;2024-01-25T11:28:56;5.68;;;2.10;;
55913;SDS011;58179;48.776;9.124;2024-01-25T11:31:25;5.25;;;1.80;;
55913;SDS011;58179;48.776;9.124;2024-01-25T11:33:52;5.73;;;1.90;;
55913;SDS011;58179;48.776;9.124;2024-01-25T11:36:21;5.65;;;1.85;;
55913;SDS011;58179;48.776;9.124;2024-01-25T11:38:48;3.65;;;1.65;;
55913;SDS011;58179;48.776;9.124;2024-01-25T11:41:14;21.13;;;4.27;;
55913;SDS011;58179;48.776;9.124;2024-01-25T11:43:40;11.43;;;3.10;;
55913;SDS011;58179;48.776;9.124;2024-01-25T11:46:08;8.50;;;2.53;;
55913;SDS011;58179;48.776;9.124;2024-01-25T11:48:38;9.90;;;2.70;;
55913;SDS011;58179;48.776;9.124;2024-01-25T11:51:04;7.55;;;2.03;;
55913;SDS011;58179;48.776;9.124;2024-01-25T11:53:31;11.18;;;2.88;;
55913;SDS011;58179;48.776;9.124;2024-01-25T11:55:57;10.82;;;2.45;;
55913;SDS011;58179;48.776;9.124;2024-01-25T11:58:23;6.55;;;1.90;;
55913;SDS011;58179;48.776;9.124;2024-01-25T12:00:50;8.90;;;2.10;;
55913;SDS011;58179;48.776;9.124;2024-01-25T12:03:18;11.57;;;2.13;;
55913;SDS011;58179;48.776;9.124;2024-01-25T12:05:44;13.90;;;2.92;;
55913;SDS011;58179;48.776;9.124;2024-01-25T12:08:12;16.50;;;3.25;;
55913;SDS011;58179;48.776;9.124;2024-01-25T12:10:39;9.35;;;2.70;;
55913;SDS011;58179;48.776;9.124;2024-01-25T12:13:05;8.95;;;2.55;;
55913;SDS011;58179;48.776;9.124;2024-01-25T12:15:34;4.88;;;1.60;;
55913;SDS011;58179;48.776;9.124;2024-01-25T12:18:00;6.68;;;1.55;;
55913;SDS011;58179;48.776;9.124;2024-01-25T12:20:28;4.00;;;1.33;;
55913;SDS011;58179;48.776;9.124;2024-01-25T12:22:54;5.40;;;1.50;;
55913;SDS011;58179;48.776;9.124;2024-01-25T12:25:24;3.63;;;1.27;;
55913;SDS011;58179;48.776;9.124;2024-01-25T12:27:50;6.05;;;1.77;;
55913;SDS011;58179;48.776;9.124;2024-01-25T12:30:18;3.38;;;1.20;;
55913;SDS011;58179;48.776;9.124;2024-01-25T12:32:44;6.63;;;1.27;;
55913;SDS011;58179;48.776;9.124;2024-01-25T12:35:14;3.75;;;1.40;;
55913;SDS011;58179;48.776;9.124;2024-01-25T12:37:41;5.85;;;1.30;;
55913;SDS011;58179;48.776;9.124;2024-01-25T12:40:08;3.90;;;1.40;;
55913;SDS011;58179;48.776;9.124;2024-01-25T12:42:34;6.82;;;2.17;;
55913;SDS011;58179;48.776;9.124;2024-01-25T12:45:00;5.15;;;2.00;;
55913;SDS011;58179;48.776;9.124;2024-01-25T12:47:26;6.30;;;2.00;;
55913;SDS011;58179;48.776;9.124;2024-01-25T12:49:53;3.92;;;1.80;;
55913;SDS011;58179;48.776;9.124;2024-01-25T12:52:19;5.00;;;1.58;;
55913;SDS011;58179;48.776;9.124;2024-01-25T12:54:47;3.47;;;1.50;;
55913;SDS011;58179;48.776;9.124;2024-01-25T12:57:13;5.28;;;1.60;;
55913;SDS011;58179;48.776;9.124;2024-01-25T12:59:40;6.07;;;1.58;;
55913;SDS011;58179;48.776;9.124;2024-01-25T13:02:07;5.15;;;1.42;;
55913;SDS011;58179;48.776;9.124;2024-01-25T13:04:33;4.05;;;1.50;;
55913;SDS011;58179;48.776;9.124;2024-01-25T13:07:00;3.70;;;1.60;;
55913;SDS011;58179;48.776;9.124;2024-01-25T13:09:26;3.70;;;1.30;;
55913;SDS011;58179;48.776;9.124;2024-01-25T13:11:55;4.80;;;1.30;;
55913;SDS011;58179;48.776;9.124;2024-01-25T13:14:23;4.28;;;1.40;;
55913;SDS011;58179;48.776;9.124;2024-01-25T13:16:49;5.05;;;1.40;;
55913;SDS011;58179;48.776;9.124;2024-01-25T13:19:15;4.37;;;1.40;;
55913;SDS011;58179;48.776;9.124;2024-01-25T13:21:41;3.35;;;1.40;;
55913;SDS011;58179;48.776;9.124;2024-01-25T13:24:08;4.40;;;1.50;;
55913;SDS011;58179;48.776;9.124;2024-01-25T13:26:35;3.35;;;1.15;;
55913;SDS011;58179;48.776;9.124;2024-01-25T13:29:03;5.13;;;1.45;;
55913;SDS011;58179;48.776;9.124;2024-01-25T13:31:29;4.97;;;1.20;;
55913;SDS011;58179;48.776;9.124;2024-01-25T13:33:55;5.38;;;1.75;;
55913;SDS011;58179;48.776;9.124;2024-01-25T13:36:21;3.30;;;1.30;;
55913;SDS011;58179;48.776;9.124;2024-01-25T13:38:47;2.40;;;1.20;;
55913;SDS011;58179;48.776;9.124;2024-01-25T13:41:14;3.22;;;1.40;;
55913;SDS011;58179;48.776;9.124;2024-01-25T13:43:40;3.47;;;1.40;;
55913;SDS011;58179;48.776;9.124;2024-01-25T13:46:07;2.78;;;1.13;;
55913;SDS011;58179;48.776;9.124;2024-01-25T13:48:33;4.10;;;1.52;;
55913;SDS011;58179;48.776;9.124;2024-01-25T13:50:59;3.58;;;1.33;;
55913;SDS011;58179;48.776;9.124;2024-01-25T13:53:26;3.47;;;1.30;;
55913;SDS011;58179;48.776;9.124;2024-01-25T13:55:52;2.00;;;1.10;;
55913;SDS011;58179;48.776;9.124;2024-01-25T13:58:18;2.15;;;1.25;;
55913;SDS011;58179;48.776;9.124;2024-01-25T14:00:44;2.97;;;1.45;;
55913;SDS011;58179;48.776;9.124;2024-01-25T14:03:11;3.47;;;1.30;;
55913;SDS011;58179;48.776;9.124;2024-01-25T14:05:39;2.92;;;1.38;;
55913;SDS011;58179;48.776;9.124;2024-01-25T14:08:05;3.00;;;1.40;;
55913;SDS011;58179;48.776;9.124;2024-01-25T14:10:31;4.37;;;1.70;;
55913;SDS011;58179;48.776;9.124;2024-01-25T14:12:59;2.97;;;1.30;;
55913;SDS011;58179;48.776;9.124;2024-01-25T14:15:25;2.20;;;1.30;;
55913;SDS011;58179;48.776;9.124;2024-01-25T14:17:51;3.67;;;1.30;;
55913;SDS011;58179;48.776;9.124;2024-01-25T14:20:18;3.45;;;1.20;;
55913;SDS011;58179;48.776;9.124;2024-01-25T14:22:45;1.73;;;1.10;;
55913;SDS011;58179;48.776;9.124;2024-01-25T14:25:11;5.03;;;1.65;;
55913;SDS011;58179;48.776;9.124;2024-01-25T14:27:37;3.07;;;1.67;;
55913;SDS011;58179;48.776;9.124;2024-01-25T14:30:04;4.25;;;1.70;;
55913;SDS011;58179;48.776;9.124;2024-01-25T14:32:31;3.88;;;1.90;;
55913;SDS011;58179;48.776;9.124;2024-01-25T14:34:58;4.75;;;1.40;;